Time;durP1;ratioP1;P1;durP2;ratioP2;P2;SDS_P1;SDS_P2;PMS_P1;PMS_P2;Temp;Humidity;BMP_temperature;BMP_pressure;BME280_temperature;BME280_humidity;BME280_pressure;Samples;Min_cycle;Max_cycle;Signal;HPM_P1;HPM_P2
2022/06/07 00:01:24;;;;;;;2.87;2.67;;;;;;;;;;4983669;28;20248;-56
2022/06/07 00:03:50;;;;;;;2.63;2.23;;;;;;;;;;4990825;28;20214;-56
2022/06/07 00:06:16;;;;;;;3.53;2.50;;;;;;;;;;4991717;28;20241;-56
2022/06/07 00:08:42;;;;;;;2.60;2.40;;;;;;;;;;4986042;28;20647;-56
2022/06/07 00:11:08;;;;;;;2.83;2.50;;;;;;;;;;4987542;28;20823;-56
2022/06/07 00:13:34;;;;;;;2.57;2.37;;;;;;;;;;4984197;28;20190;-55
2022/06/07 00:16:00;;;;;;;5.07;2.60;;;;;;;;;;4986940;28;20950;-56
2022/06/07 00:18:26;;;;;;;2.80;2.60;;;;;;;;;;4978519;28;21729;-56
2022/06/07 00:20:52;;;;;;;3.17;2.97;;;;;;;;;;4991336;28;20190;-56
2022/06/07 00:23:18;;;;;;;3.07;2.77;;;;;;;;;;4989213;28;20181;-57
2022/06/07 00:25:45;;;;;;;2.90;2.70;;;;;;;;;;4980723;28;20186;-56
2022/06/07 00:28:11;;;;;;;3.17;2.87;;;;;;;;;;4984759;28;20214;-56
2022/06/07 00:30:37;;;;;;;2.70;2.50;;;;;;;;;;4985422;28;20197;-56
2022/06/07 00:33:03;;;;;;;3.67;2.33;;;;;;;;;;4998604;28;20194;-55
2022/06/07 00:35:29;;;;;;;5.93;4.00;;;;;;;;;;4992502;28;20201;-56
2022/06/07 00:37:55;;;;;;;3.13;2.93;;;;;;;;;;4987868;28;20205;-56
2022/06/07 00:40:21;;;;;;;4.67;3.30;;;;;;;;;;4984925;28;20198;-57
2022/06/07 00:42:47;;;;;;;2.83;2.63;;;;;;;;;;4978987;28;20225;-56
2022/06/07 00:45:14;;;;;;;4.83;3.00;;;;;;;;;;4979525;28;20915;-56
2022/06/07 00:47:40;;;;;;;4.53;2.97;;;;;;;;;;4990519;28;20577;-56
2022/06/07 00:50:06;;;;;;;3.70;3.00;;;;;;;;;;4981411;28;20204;-56
2022/06/07 00:52:33;;;;;;;3.47;2.80;;;;;;;;;;4996603;28;20275;-56
2022/06/07 00:54:59;;;;;;;4.10;2.80;;;;;;;;;;4991912;28;20693;-56
2022/06/07 00:57:25;;;;;;;2.87;2.63;;;;;;;;;;4989198;28;20213;-56
2022/06/07 00:59:51;;;;;;;2.90;2.57;;;;;;;;;;4989091;28;20183;-57
2022/06/07 01:02:17;;;;;;;3.43;2.60;;;;;;;;;;4987720;28;20190;-56
2022/06/07 01:04:43;;;;;;;4.00;2.60;;;;;;;;;;4984144;28;20636;-56
2022/06/07 01:12:38;;;;;;;2.80;2.60;;;;;;;;;;4986647;28;20651;-56
2022/06/07 01:15:05;;;;;;;3.00;2.67;;;;;;;;;;4986947;28;20194;-56
2022/06/07 01:17:31;;;;;;;6.83;3.00;;;;;;;;;;4987962;28;20217;-61
2022/06/07 01:19:57;;;;;;;2.70;2.50;;;;;;;;;;4986472;28;20617;-56
2022/06/07 01:22:23;;;;;;;3.53;2.37;;;;;;;;;;4993007;28;20193;-56
2022/06/07 01:24:49;;;;;;;2.60;2.40;;;;;;;;;;4986474;28;20194;-56
2022/06/07 01:27:15;;;;;;;2.63;2.42;;;;;;;;;;4985723;28;20435;-56
2022/06/07 01:29:42;;;;;;;6.00;2.53;;;;;;;;;;4984134;28;20186;-56
2022/06/07 01:32:08;;;;;;;5.80;2.77;;;;;;;;;;4986204;28;20187;-58
2022/06/07 01:34:34;;;;;;;7.80;2.97;;;;;;;;;;4991524;28;20652;-56
2022/06/07 01:37:00;;;;;;;6.33;2.47;;;;;;;;;;4994278;28;20259;-58
2022/06/07 01:42:11;;;;;;;2.50;2.30;;;;;;;;;;4987421;28;20240;-57
2022/06/07 01:44:38;;;;;;;2.60;2.40;;;;;;;;;;4987152;28;20201;-58
2022/06/07 01:47:05;;;;;;;3.93;2.60;;;;;;;;;;4985863;28;20707;-57
2022/06/07 01:49:31;;;;;;;2.40;2.20;;;;;;;;;;4995783;28;20659;-57
2022/06/07 01:51:58;;;;;;;3.87;3.07;;;;;;;;;;4991932;28;20186;-57
2022/06/07 01:54:24;;;;;;;4.87;2.77;;;;;;;;;;4986514;28;20318;-57
2022/06/07 01:56:50;;;;;;;2.77;2.40;;;;;;;;;;4988334;28;20212;-57
2022/06/07 01:59:17;;;;;;;3.17;2.63;;;;;;;;;;4986954;28;20186;-57
2022/06/07 02:01:43;;;;;;;3.73;2.80;;;;;;;;;;4981586;28;20273;-57
2022/06/07 02:04:10;;;;;;;4.05;2.50;;;;;;;;;;4983398;28;20907;-57
2022/06/07 02:06:36;;;;;;;2.97;2.50;;;;;;;;;;4991301;28;20413;-57
2022/06/07 02:09:02;;;;;;;3.47;2.73;;;;;;;;;;4983647;28;20248;-57
2022/06/07 02:11:28;;;;;;;2.57;2.37;;;;;;;;;;4991562;28;20309;-56
2022/06/07 02:13:54;;;;;;;3.33;2.50;;;;;;;;;;4984438;28;20194;-55
2022/06/07 02:16:20;;;;;;;2.93;2.50;;;;;;;;;;4988418;28;20248;-55
2022/06/07 02:18:47;;;;;;;3.90;2.60;;;;;;;;;;4992556;28;20227;-55
2022/06/07 02:21:13;;;;;;;3.03;2.30;;;;;;;;;;4991890;28;20244;-58
2022/06/07 02:23:39;;;;;;;3.00;2.53;;;;;;;;;;4986034;28;20191;-56
2022/06/07 02:26:12;;;;;;;3.83;3.10;;;;;;;;;;4989358;28;20182;-56
2022/06/07 02:28:39;;;;;;;4.80;2.60;;;;;;;;;;4988969;28;20210;-56
2022/06/07 02:31:05;;;;;;;4.13;2.93;;;;;;;;;;4992824;28;20273;-55
2022/06/07 02:33:31;;;;;;;4.40;2.67;;;;;;;;;;4994981;28;20179;-55
2022/06/07 02:35:57;;;;;;;2.80;2.47;;;;;;;;;;4990832;28;20198;-56
2022/06/07 02:38:23;;;;;;;2.83;2.43;;;;;;;;;;4987897;28;20209;-55
2022/06/07 02:40:48;;;;;;;2.80;2.50;;;;;;;;;;4986426;28;20190;-56
2022/06/07 02:43:14;;;;;;;3.90;2.20;;;;;;;;;;4982620;28;20453;-56
2022/06/07 02:45:40;;;;;;;3.77;2.60;;;;;;;;;;4981391;28;20492;-58
2022/06/07 02:48:07;;;;;;;2.87;1.80;;;;;;;;;;4984599;28;20414;-56
2022/06/07 02:50:33;;;;;;;4.07;2.20;;;;;;;;;;4987384;28;20418;-56
2022/06/07 02:52:59;;;;;;;4.18;1.90;;;;;;;;;;4990711;28;20765;-56
2022/06/07 02:55:26;;;;;;;2.63;1.90;;;;;;;;;;4984823;28;20419;-56
2022/06/07 02:57:52;;;;;;;2.28;1.70;;;;;;;;;;4986847;28;20457;-56
2022/06/07 03:00:18;;;;;;;5.03;2.17;;;;;;;;;;4982725;28;20439;-56
2022/06/07 03:02:44;;;;;;;4.03;2.00;;;;;;;;;;4982659;28;20491;-56
2022/06/07 03:05:12;;;;;;;2.70;1.80;;;;;;;;;;4983564;28;20696;-58
2022/06/07 03:07:39;;;;;;;3.78;1.92;;;;;;;;;;4981248;28;20895;-56
2022/06/07 03:10:05;;;;;;;4.63;1.90;;;;;;;;;;4984909;28;20405;-56
2022/06/07 03:12:32;;;;;;;3.15;1.70;;;;;;;;;;4987989;28;20418;-57
2022/06/07 03:14:58;;;;;;;3.13;1.80;;;;;;;;;;4987458;28;20416;-56
2022/06/07 03:17:24;;;;;;;2.80;2.00;;;;;;;;;;4980876;28;20425;-56
2022/06/07 03:19:50;;;;;;;4.18;2.33;;;;;;;;;;4989598;28;20575;-56
2022/06/07 03:22:17;;;;;;;3.03;2.00;;;;;;;;;;4988384;28;20488;-56
2022/06/07 03:24:42;;;;;;;5.35;2.20;;;;;;;;;;4987291;28;20470;-55
2022/06/07 03:27:08;;;;;;;3.20;1.83;;;;;;;;;;4987780;28;20421;-56
2022/06/07 03:29:34;;;;;;;2.60;1.85;;;;;;;;;;4985303;28;20412;-55
2022/06/07 03:32:00;;;;;;;3.90;1.90;;;;;;;;;;4982197;28;21467;-56
2022/06/07 03:34:26;;;;;;;3.15;1.60;;;;;;;;;;4990490;28;20976;-57
2022/06/07 03:36:53;;;;;;;3.13;1.77;;;;;;;;;;4981289;28;20424;-57
2022/06/07 03:39:19;;;;;;;2.20;1.85;;;;;;;;;;4987222;28;20416;-56
2022/06/07 03:41:45;;;;;;;3.93;1.80;;;;;;;;;;4984937;28;20410;-57
2022/06/07 03:44:12;;;;;;;2.65;1.90;;;;;;;;;;4984442;28;20412;-56
2022/06/07 03:46:38;;;;;;;3.05;1.83;;;;;;;;;;4988614;28;20871;-57
2022/06/07 03:49:04;;;;;;;2.70;1.83;;;;;;;;;;4986842;28;20906;-58
2022/06/07 03:51:30;;;;;;;4.40;2.03;;;;;;;;;;4989784;28;20406;-57
2022/06/07 03:53:57;;;;;;;2.80;1.73;;;;;;;;;;4979969;28;20523;-56
2022/06/07 03:56:23;;;;;;;4.03;1.85;;;;;;;;;;4986463;28;21131;-57
2022/06/07 03:58:49;;;;;;;3.75;2.08;;;;;;;;;;4985021;28;20411;-57
2022/06/07 04:01:15;;;;;;;4.47;2.17;;;;;;;;;;4986601;28;20416;-57
2022/06/07 04:03:43;;;;;;;2.40;1.60;;;;;;;;;;4978416;28;20480;-58
2022/06/07 04:06:15;;;;;;;3.30;1.70;;;;;;;;;;4984366;28;20533;-58
2022/06/07 04:08:41;;;;;;;2.60;1.75;;;;;;;;;;4985682;28;21688;-57
2022/06/07 04:11:07;;;;;;;2.78;1.73;;;;;;;;;;4988350;28;21084;-58
2022/06/07 04:13:33;;;;;;;2.17;1.70;;;;;;;;;;4986264;28;20420;-57
2022/06/07 04:15:59;;;;;;;3.85;1.63;;;;;;;;;;4980364;28;20517;-57
2022/06/07 04:18:25;;;;;;;2.58;1.80;;;;;;;;;;4985263;28;20488;-57
2022/06/07 04:20:51;;;;;;;2.00;1.60;;;;;;;;;;4973715;28;20491;-56
2022/06/07 04:23:18;;;;;;;3.67;1.65;;;;;;;;;;4980588;28;20420;-57
2022/06/07 04:25:45;;;;;;;2.15;1.80;;;;;;;;;;4975133;28;20406;-57
2022/06/07 04:28:11;;;;;;;2.58;1.60;;;;;;;;;;4985273;28;20412;-57
2022/06/07 04:30:37;;;;;;;2.80;1.70;;;;;;;;;;4983387;28;20414;-58
2022/06/07 04:33:03;;;;;;;2.97;2.00;;;;;;;;;;4981157;28;20488;-57
2022/06/07 04:35:29;;;;;;;2.45;1.70;;;;;;;;;;4984240;28;20898;-56
2022/06/07 04:37:55;;;;;;;3.10;1.75;;;;;;;;;;4982138;28;20426;-57
2022/06/07 04:40:21;;;;;;;2.42;1.73;;;;;;;;;;4989439;28;20491;-57
2022/06/07 04:42:47;;;;;;;3.35;1.70;;;;;;;;;;4986886;28;20904;-58
2022/06/07 04:45:15;;;;;;;3.20;1.60;;;;;;;;;;4985986;28;20417;-57
2022/06/07 04:47:41;;;;;;;2.08;1.40;;;;;;;;;;4991491;28;20861;-58
2022/06/07 04:50:08;;;;;;;2.70;1.90;;;;;;;;;;4986215;28;20619;-57
2022/06/07 04:52:34;;;;;;;3.05;1.60;;;;;;;;;;4980433;28;20539;-58
2022/06/07 04:55:00;;;;;;;3.13;1.60;;;;;;;;;;4973841;28;20416;-58
2022/06/07 04:57:26;;;;;;;2.10;1.60;;;;;;;;;;4982129;28;20443;-56
2022/06/07 04:59:52;;;;;;;3.35;1.70;;;;;;;;;;4970805;28;20415;-56
2022/06/07 05:02:18;;;;;;;3.30;1.80;;;;;;;;;;4972699;28;20774;-57
2022/06/07 05:04:45;;;;;;;4.18;1.83;;;;;;;;;;4981864;28;20420;-57
2022/06/07 05:07:11;;;;;;;3.25;1.77;;;;;;;;;;4980189;28;20434;-57
2022/06/07 05:09:37;;;;;;;3.28;1.80;;;;;;;;;;4983075;28;20491;-57
2022/06/07 05:12:05;;;;;;;3.75;1.70;;;;;;;;;;4984256;28;20444;-58
2022/06/07 05:14:31;;;;;;;2.42;1.60;;;;;;;;;;4973145;28;20408;-58
2022/06/07 05:16:58;;;;;;;4.30;1.88;;;;;;;;;;4981068;28;20843;-57
2022/06/07 05:19:24;;;;;;;3.05;1.50;;;;;;;;;;4982138;28;20506;-58
2022/06/07 05:21:50;;;;;;;3.50;1.60;;;;;;;;;;4977917;28;20443;-58
2022/06/07 05:24:16;;;;;;;4.20;2.10;;;;;;;;;;4982797;28;20983;-53
2022/06/07 05:26:42;;;;;;;6.85;2.25;;;;;;;;;;4986811;28;21816;-53
2022/06/07 05:29:15;;;;;;;2.80;2.10;;;;;;;;;;4983751;28;20404;-53
2022/06/07 05:31:41;;;;;;;5.43;2.10;;;;;;;;;;4988192;28;20411;-57
2022/06/07 05:34:08;;;;;;;6.03;1.90;;;;;;;;;;4987824;28;20416;-57
2022/06/07 05:36:34;;;;;;;4.93;1.98;;;;;;;;;;4990636;28;20505;-57
2022/06/07 05:39:03;;;;;;;4.10;2.00;;;;;;;;;;4990129;28;20496;-58
2022/06/07 05:41:32;;;;;;;3.17;1.80;;;;;;;;;;4991289;28;20412;-58
2022/06/07 05:43:58;;;;;;;4.65;1.92;;;;;;;;;;4989758;28;20412;-58
2022/06/07 05:46:24;;;;;;;3.77;1.90;;;;;;;;;;4990448;28;20415;-58
2022/06/07 05:48:50;;;;;;;4.83;2.03;;;;;;;;;;4988688;28;20424;-55
2022/06/07 05:51:16;;;;;;;2.90;1.83;;;;;;;;;;4983017;28;20444;-55
2022/06/07 05:53:42;;;;;;;5.30;2.00;;;;;;;;;;4988162;28;20967;-55
2022/06/07 05:56:09;;;;;;;5.53;1.90;;;;;;;;;;4977507;28;20424;-55
2022/06/07 05:58:35;;;;;;;3.15;1.88;;;;;;;;;;4982335;28;20430;-55
2022/06/07 06:01:01;;;;;;;6.70;1.88;;;;;;;;;;4982469;28;20414;-55
2022/06/07 06:03:27;;;;;;;3.85;1.88;;;;;;;;;;4979578;28;20570;-55
2022/06/07 06:05:53;;;;;;;5.40;1.90;;;;;;;;;;4982981;28;20482;-54
2022/06/07 06:11:08;;;;;;;3.60;1.88;;;;;;;;;;4982592;28;20575;-55
2022/06/07 06:13:35;;;;;;;4.05;1.70;;;;;;;;;;4974713;28;20449;-55
2022/06/07 06:16:11;;;;;;;4.38;1.67;;;;;;;;;;4979478;28;20412;-55
2022/06/07 06:18:37;;;;;;;5.68;1.70;;;;;;;;;;4990877;28;21052;-55
2022/06/07 06:21:04;;;;;;;3.35;1.77;;;;;;;;;;4979952;28;20765;-55
2022/06/07 06:23:30;;;;;;;2.92;1.50;;;;;;;;;;4974029;28;21499;-55
2022/06/07 06:25:56;;;;;;;3.15;1.70;;;;;;;;;;4978419;28;20417;-56
2022/06/07 06:28:22;;;;;;;2.72;1.65;;;;;;;;;;4978248;28;20418;-56
2022/06/07 06:30:48;;;;;;;5.05;2.00;;;;;;;;;;4983590;28;20404;-56
2022/06/07 06:33:14;;;;;;;4.27;1.70;;;;;;;;;;4982549;28;20421;-56
2022/06/07 06:35:41;;;;;;;4.00;1.70;;;;;;;;;;4986999;28;20965;-56
2022/06/07 06:38:07;;;;;;;2.40;1.60;;;;;;;;;;4985328;28;20894;-55
2022/06/07 06:40:33;;;;;;;2.35;1.50;;;;;;;;;;4986878;28;20797;-56
2022/06/07 06:42:59;;;;;;;3.58;1.60;;;;;;;;;;4986946;28;20774;-55
2022/06/07 06:45:25;;;;;;;4.82;1.60;;;;;;;;;;4977244;28;20816;-56
2022/06/07 06:47:51;;;;;;;3.20;1.80;;;;;;;;;;4983404;28;20408;-56
2022/06/07 06:50:17;;;;;;;3.45;1.70;;;;;;;;;;4982065;28;20520;-56
2022/06/07 06:52:42;;;;;;;3.38;1.77;;;;;;;;;;4973658;28;20464;-56
2022/06/07 06:55:09;;;;;;;3.60;1.90;;;;;;;;;;4983454;28;20472;-56
2022/06/07 06:57:34;;;;;;;4.45;1.90;;;;;;;;;;4981987;28;20433;-54
2022/06/07 07:00:03;;;;;;;3.33;1.70;;;;;;;;;;4990156;28;20408;-54
2022/06/07 07:02:29;;;;;;;2.60;1.88;;;;;;;;;;4992126;28;20919;-54
2022/06/07 07:04:55;;;;;;;3.20;1.58;;;;;;;;;;4985391;28;20502;-54
2022/06/07 07:07:21;;;;;;;4.03;1.67;;;;;;;;;;4987880;28;20407;-54
2022/06/07 07:09:49;;;;;;;2.43;1.70;;;;;;;;;;4983927;28;20938;-54
2022/06/07 07:12:16;;;;;;;2.38;1.65;;;;;;;;;;4994226;28;20400;-54
2022/06/07 07:14:42;;;;;;;3.67;1.67;;;;;;;;;;4990888;28;20428;-54
2022/06/07 07:17:08;;;;;;;2.53;1.40;;;;;;;;;;4990696;28;20469;-54
2022/06/07 07:19:34;;;;;;;3.00;1.80;;;;;;;;;;4991750;28;20465;-55
2022/06/07 07:22:01;;;;;;;2.47;1.70;;;;;;;;;;4982304;28;20411;-54
2022/06/07 07:24:27;;;;;;;2.80;1.40;;;;;;;;;;4989040;28;23029;-54
2022/06/07 07:26:53;;;;;;;2.78;1.60;;;;;;;;;;4990661;28;20907;-54
2022/06/07 07:29:19;;;;;;;2.67;1.60;;;;;;;;;;4984671;28;20415;-54
2022/06/07 07:31:45;;;;;;;3.28;1.70;;;;;;;;;;4990586;28;20419;-54
2022/06/07 07:34:12;;;;;;;2.20;1.52;;;;;;;;;;4987318;28;20489;-54
2022/06/07 07:36:41;;;;;;;4.80;1.80;;;;;;;;;;4987527;28;20417;-54
2022/06/07 07:39:08;;;;;;;2.20;1.70;;;;;;;;;;4991330;28;20431;-54
2022/06/07 07:41:34;;;;;;;2.50;1.65;;;;;;;;;;4990179;28;20406;-54
2022/06/07 07:44:01;;;;;;;5.20;1.57;;;;;;;;;;4991596;28;21135;-54
2022/06/07 07:46:28;;;;;;;1.80;1.50;;;;;;;;;;4984378;28;20470;-54
2022/06/07 07:48:54;;;;;;;2.28;1.60;;;;;;;;;;4988126;28;20987;-54
2022/06/07 07:51:21;;;;;;;2.58;1.65;;;;;;;;;;4985212;28;20491;-54
2022/06/07 07:53:47;;;;;;;6.13;1.90;;;;;;;;;;4990204;28;20420;-54
2022/06/07 07:56:14;;;;;;;1.98;1.60;;;;;;;;;;4979034;28;20903;-54
2022/06/07 07:58:39;;;;;;;2.53;1.70;;;;;;;;;;4981641;28;20461;-54
2022/06/07 08:01:09;;;;;;;2.90;1.55;;;;;;;;;;4977421;28;20901;-55
2022/06/07 08:03:37;;;;;;;2.42;1.52;;;;;;;;;;4972689;28;20513;-54
2022/06/07 08:06:03;;;;;;;1.93;1.50;;;;;;;;;;4965791;28;20463;-55
2022/06/07 08:08:29;;;;;;;1.80;1.55;;;;;;;;;;4978624;28;20412;-54
2022/06/07 08:10:55;;;;;;;2.50;1.63;;;;;;;;;;4985634;28;20900;-53
2022/06/07 08:13:21;;;;;;;2.20;1.70;;;;;;;;;;4984776;28;20972;-54
2022/06/07 08:15:47;;;;;;;2.47;1.73;;;;;;;;;;4984603;28;20416;-54
2022/06/07 08:18:13;;;;;;;2.50;1.70;;;;;;;;;;4987076;28;20495;-54
2022/06/07 08:20:39;;;;;;;3.40;1.80;;;;;;;;;;4986763;28;20406;-54
2022/06/07 08:23:05;;;;;;;2.42;1.60;;;;;;;;;;4990440;28;20969;-54
2022/06/07 08:25:32;;;;;;;2.58;1.67;;;;;;;;;;4987913;28;20760;-54
2022/06/07 08:27:58;;;;;;;2.42;1.67;;;;;;;;;;4991602;28;20419;-54
2022/06/07 08:30:24;;;;;;;2.25;1.80;;;;;;;;;;4979332;28;20417;-54
2022/06/07 08:32:50;;;;;;;1.80;1.60;;;;;;;;;;4993564;28;20417;-54
2022/06/07 08:38:01;;;;;;;2.95;1.70;;;;;;;;;;4989553;28;20422;-54
2022/06/07 08:40:33;;;;;;;2.70;1.60;;;;;;;;;;4985655;28;20460;-54
2022/06/07 08:43:00;;;;;;;2.05;1.58;;;;;;;;;;4973090;28;21139;-54
2022/06/07 08:45:30;;;;;;;2.00;1.55;;;;;;;;;;4983488;28;20945;-54
2022/06/07 08:47:56;;;;;;;2.78;1.65;;;;;;;;;;4985976;28;20413;-53
2022/06/07 08:50:23;;;;;;;3.13;1.60;;;;;;;;;;4983619;28;21119;-54
2022/06/07 08:52:50;;;;;;;1.77;1.58;;;;;;;;;;4983455;28;20505;-54
2022/06/07 08:55:27;;;;;;;3.25;1.70;;;;;;;;;;4989453;28;20746;-54
2022/06/07 08:58:00;;;;;;;2.05;1.70;;;;;;;;;;4987497;28;20437;-54
2022/06/07 09:00:31;;;;;;;1.83;1.70;;;;;;;;;;4981069;28;20861;-54
2022/06/07 09:02:57;;;;;;;2.20;1.70;;;;;;;;;;4983174;28;20425;-54
2022/06/07 09:05:25;;;;;;;2.47;1.63;;;;;;;;;;4983205;28;20424;-54
2022/06/07 09:07:51;;;;;;;2.00;1.73;;;;;;;;;;4986658;28;20553;-54
2022/06/07 09:13:02;;;;;;;2.25;1.52;;;;;;;;;;4986346;28;20454;-55
2022/06/07 09:15:29;;;;;;;3.03;1.40;;;;;;;;;;4986055;28;20407;-54
2022/06/07 09:17:57;;;;;;;2.58;1.50;;;;;;;;;;4990195;28;20418;-54
2022/06/07 09:20:24;;;;;;;3.83;1.60;;;;;;;;;;4987424;28;20420;-54
2022/06/07 09:22:50;;;;;;;1.80;1.70;;;;;;;;;;4990773;28;20416;-54
2022/06/07 09:25:17;;;;;;;3.30;1.80;;;;;;;;;;4983448;28;20414;-54
2022/06/07 09:27:45;;;;;;;2.10;1.70;;;;;;;;;;4992611;28;20428;-54
2022/06/07 09:30:17;;;;;;;2.72;1.52;;;;;;;;;;4991045;28;20444;-54
2022/06/07 09:32:44;;;;;;;2.50;1.50;;;;;;;;;;4989828;28;20412;-54
2022/06/07 09:35:15;;;;;;;4.25;1.70;;;;;;;;;;4985578;28;20412;-54
2022/06/07 09:37:47;;;;;;;2.63;1.73;;;;;;;;;;4987642;28;20459;-54
2022/06/07 09:40:24;;;;;;;1.87;1.57;;;;;;;;;;4989286;28;20410;-54
2022/06/07 09:42:54;;;;;;;2.30;1.70;;;;;;;;;;4987092;28;20415;-55
2022/06/07 09:45:23;;;;;;;2.30;2.13;;;;;;;;;;4983376;28;20466;-54
2022/06/07 09:47:49;;;;;;;3.45;2.20;;;;;;;;;;4983011;28;20406;-56
2022/06/07 09:50:20;;;;;;;3.50;2.10;;;;;;;;;;4986058;28;20431;-54
2022/06/07 09:52:47;;;;;;;4.03;2.25;;;;;;;;;;4993526;28;20439;-55
2022/06/07 09:55:16;;;;;;;2.60;2.35;;;;;;;;;;4991921;28;21389;-55
2022/06/07 09:57:43;;;;;;;2.50;2.30;;;;;;;;;;4992020;28;20413;-55
2022/06/07 10:00:09;;;;;;;3.35;2.20;;;;;;;;;;4984665;28;20826;-55
2022/06/07 10:02:55;;;;;;;3.38;2.10;;;;;;;;;;4982611;28;20393;-55
2022/06/07 10:05:40;;;;;;;2.60;2.40;;;;;;;;;;4984059;28;20412;-54
2022/06/07 10:08:11;;;;;;;3.67;2.00;;;;;;;;;;4992578;28;20422;-54
2022/06/07 10:10:44;;;;;;;2.40;2.20;;;;;;;;;;4986513;28;20416;-54
2022/06/07 10:13:16;;;;;;;3.65;2.40;;;;;;;;;;4988001;28;20415;-54
2022/06/07 10:15:44;;;;;;;2.53;2.33;;;;;;;;;;4984354;28;20409;-54
2022/06/07 10:18:26;;;;;;;3.95;2.72;;;;;;;;;;4989708;28;20434;-54
2022/06/07 10:21:00;;;;;;;2.95;2.65;;;;;;;;;;4992073;28;20412;-55
2022/06/07 10:23:37;;;;;;;2.85;2.40;;;;;;;;;;4979524;28;20413;-55
2022/06/07 10:26:22;;;;;;;2.67;2.47;;;;;;;;;;4990476;28;20472;-54
2022/06/07 10:28:59;;;;;;;2.65;2.28;;;;;;;;;;4990548;28;20546;-54
2022/06/07 10:31:25;;;;;;;7.60;2.55;;;;;;;;;;4985553;28;20417;-54
2022/06/07 10:33:54;;;;;;;3.17;2.30;;;;;;;;;;4985728;28;20890;-54
2022/06/07 10:36:30;;;;;;;3.10;2.47;;;;;;;;;;4994868;28;20440;-54
2022/06/07 10:39:14;;;;;;;2.67;2.40;;;;;;;;;;4993758;28;20428;-53
2022/06/07 10:41:53;;;;;;;2.80;2.50;;;;;;;;;;4983538;28;20399;-54
2022/06/07 10:44:26;;;;;;;4.22;2.70;;;;;;;;;;4991541;28;20412;-54
2022/06/07 10:46:52;;;;;;;3.87;2.80;;;;;;;;;;4981970;28;20415;-54
2022/06/07 10:49:21;;;;;;;3.22;2.30;;;;;;;;;;4986070;28;20785;-54
2022/06/07 10:52:20;;;;;;;2.95;2.50;;;;;;;;;;4983998;28;20583;-54
2022/06/07 10:54:54;;;;;;;3.33;2.40;;;;;;;;;;4989346;28;20863;-54
2022/06/07 10:57:23;;;;;;;2.90;2.30;;;;;;;;;;4984431;28;20514;-54
2022/06/07 10:59:50;;;;;;;3.45;2.40;;;;;;;;;;4988367;28;20459;-54
2022/06/07 11:02:31;;;;;;;3.17;2.40;;;;;;;;;;4984477;28;20760;-53
2022/06/07 11:10:39;;;;;;;3.33;2.20;;;;;;;;;;4983715;28;20424;-56
2022/06/07 11:13:16;;;;;;;2.63;2.43;;;;;;;;;;4982678;28;20425;-56
2022/06/07 11:16:05;;;;;;;3.15;2.70;;;;;;;;;;4989454;28;20581;-55
2022/06/07 11:18:31;;;;;;;5.55;2.70;;;;;;;;;;4988981;28;20480;-56
2022/06/07 11:21:03;;;;;;;3.10;2.65;;;;;;;;;;4986766;28;20851;-55
2022/06/07 11:23:33;;;;;;;2.92;2.63;;;;;;;;;;4985634;28;20496;-54
2022/06/07 11:26:02;;;;;;;3.10;2.67;;;;;;;;;;4991078;28;20414;-55
2022/06/07 11:28:33;;;;;;;2.50;2.30;;;;;;;;;;4981701;28;20490;-55
2022/06/07 11:31:03;;;;;;;2.67;2.40;;;;;;;;;;4991411;28;20425;-55
2022/06/07 11:33:32;;;;;;;3.97;2.65;;;;;;;;;;4996310;28;21087;-55
2022/06/07 11:36:28;;;;;;;3.97;2.33;;;;;;;;;;4988948;28;20404;-55
2022/06/07 11:38:57;;;;;;;7.20;2.53;;;;;;;;;;4985191;28;20425;-54
2022/06/07 11:41:38;;;;;;;4.30;2.50;;;;;;;;;;4983821;28;20475;-55
2022/06/07 11:44:10;;;;;;;3.88;2.42;;;;;;;;;;4968963;28;20456;-54
2022/06/07 11:46:36;;;;;;;3.50;2.42;;;;;;;;;;4976968;28;20422;-55
2022/06/07 11:49:20;;;;;;;6.55;2.50;;;;;;;;;;4980400;28;20448;-55
2022/06/07 11:52:05;;;;;;;3.83;2.30;;;;;;;;;;4985444;28;20874;-55
2022/06/07 11:54:36;;;;;;;3.15;2.42;;;;;;;;;;4987355;28;20418;-53
2022/06/07 11:57:22;;;;;;;3.10;2.50;;;;;;;;;;4985483;28;20406;-53
2022/06/07 11:59:52;;;;;;;3.25;2.45;;;;;;;;;;4991096;28;20759;-53
2022/06/07 12:02:26;;;;;;;2.77;2.57;;;;;;;;;;4974194;28;20414;-53
2022/06/07 12:04:52;;;;;;;2.97;2.45;;;;;;;;;;4978429;28;20953;-54
2022/06/07 12:07:18;;;;;;;2.85;2.50;;;;;;;;;;4983148;28;20493;-53
2022/06/07 12:09:54;;;;;;;2.67;2.20;;;;;;;;;;4977100;28;20412;-53
2022/06/07 12:12:36;;;;;;;3.00;2.43;;;;;;;;;;4989706;28;20410;-54
2022/06/07 12:15:10;;;;;;;2.47;2.20;;;;;;;;;;4984033;28;20489;-54
2022/06/07 12:17:36;;;;;;;2.50;2.30;;;;;;;;;;4990723;28;20803;-53
2022/06/07 12:20:02;;;;;;;2.93;2.60;;;;;;;;;;4980214;28;20927;-54
2022/06/07 12:22:30;;;;;;;2.93;2.63;;;;;;;;;;4983047;28;20425;-53
2022/06/07 12:24:58;;;;;;;4.63;2.30;;;;;;;;;;4987548;28;20508;-54
2022/06/07 12:27:25;;;;;;;2.95;2.35;;;;;;;;;;4979732;28;20410;-54
2022/06/07 12:29:53;;;;;;;2.33;2.13;;;;;;;;;;4972416;28;20993;-54
2022/06/07 12:32:20;;;;;;;2.90;2.20;;;;;;;;;;4982345;28;20414;-53
2022/06/07 12:34:46;;;;;;;3.00;2.20;;;;;;;;;;4970533;28;20422;-53
2022/06/07 12:37:12;;;;;;;3.20;2.25;;;;;;;;;;4984984;28;20797;-54
2022/06/07 12:39:42;;;;;;;2.25;2.05;;;;;;;;;;4990564;28;20408;-53
2022/06/07 12:42:10;;;;;;;2.57;2.37;;;;;;;;;;4991213;28;20447;-54
2022/06/07 12:44:37;;;;;;;2.10;1.95;;;;;;;;;;4990094;28;20414;-54
2022/06/07 12:47:04;;;;;;;2.55;2.30;;;;;;;;;;4982757;28;20917;-53
2022/06/07 12:49:30;;;;;;;2.50;2.30;;;;;;;;;;4980554;28;20500;-53
2022/06/07 12:52:00;;;;;;;2.30;2.10;;;;;;;;;;4990280;28;20415;-54
2022/06/07 12:54:28;;;;;;;3.87;2.30;;;;;;;;;;4989969;28;20424;-53
2022/06/07 12:56:54;;;;;;;2.23;2.03;;;;;;;;;;4986504;28;20418;-53
2022/06/07 12:59:22;;;;;;;2.92;2.20;;;;;;;;;;4976319;28;20425;-53
2022/06/07 13:01:49;;;;;;;3.40;2.60;;;;;;;;;;4973068;28;20753;-53
2022/06/07 13:04:21;;;;;;;3.55;2.60;;;;;;;;;;4981670;28;21038;-53
2022/06/07 13:07:19;;;;;;;3.03;2.60;;;;;;;;;;4976961;28;20428;-53
2022/06/07 13:09:47;;;;;;;3.00;2.70;;;;;;;;;;4943852;28;20412;-53
2022/06/07 13:12:24;;;;;;;4.60;3.15;;;;;;;;;;4986929;28;21201;-53
2022/06/07 13:14:52;;;;;;;3.28;2.88;;;;;;;;;;4983627;28;20416;-52
2022/06/07 13:17:36;;;;;;;4.32;2.50;;;;;;;;;;4985755;28;20932;-52
2022/06/07 13:20:03;;;;;;;3.17;2.30;;;;;;;;;;4993096;28;20406;-52
2022/06/07 13:22:32;;;;;;;3.78;2.70;;;;;;;;;;4988297;28;20471;-52
2022/06/07 13:25:09;;;;;;;2.50;2.30;;;;;;;;;;4983439;28;20757;-52
2022/06/07 13:27:43;;;;;;;2.60;2.40;;;;;;;;;;4990143;28;20414;-53
2022/06/07 13:30:29;;;;;;;3.92;2.65;;;;;;;;;;4991679;28;20410;-53
2022/06/07 13:33:07;;;;;;;2.35;1.90;;;;;;;;;;4987699;28;20471;-52
2022/06/07 13:35:41;;;;;;;6.35;3.50;;;;;;;;;;4981461;28;20912;-52
2022/06/07 13:38:36;;;;;;;5.50;4.55;;;;;;;;;;4985447;28;25768;-53
2022/06/07 13:41:11;;;;;;;4.63;3.90;;;;;;;;;;4974921;28;20432;-55
2022/06/07 13:43:58;;;;;;;4.90;3.90;;;;;;;;;;4983542;28;20901;-55
2022/06/07 13:46:25;;;;;;;7.85;4.22;;;;;;;;;;4980661;28;20506;-54
2022/06/07 13:54:27;;;;;;;5.25;3.72;;;;;;;;;;4980693;28;20831;-55
2022/06/07 13:56:53;;;;;;;3.75;3.45;;;;;;;;;;4991633;28;20418;-55
2022/06/07 13:59:19;;;;;;;4.20;3.80;;;;;;;;;;4984680;28;20504;-54
2022/06/07 14:01:47;;;;;;;4.43;3.33;;;;;;;;;;4992269;28;20886;-54
2022/06/07 14:04:17;;;;;;;5.47;3.90;;;;;;;;;;4988362;28;20944;-56
2022/06/07 14:06:43;;;;;;;6.90;3.90;;;;;;;;;;4990145;28;20647;-55
2022/06/07 14:09:19;;;;;;;9.20;4.10;;;;;;;;;;4982127;28;20430;-60
2022/06/07 14:11:45;;;;;;;5.30;4.10;;;;;;;;;;4980716;28;20474;-54
2022/06/07 14:14:11;;;;;;;4.10;3.63;;;;;;;;;;4988934;28;20409;-55
2022/06/07 14:16:38;;;;;;;7.47;4.30;;;;;;;;;;4979632;28;20425;-54
2022/06/07 14:19:08;;;;;;;7.03;4.57;;;;;;;;;;4989661;28;20911;-56
2022/06/07 14:21:34;;;;;;;5.63;5.13;;;;;;;;;;4990646;28;20409;-54
2022/06/07 14:24:00;;;;;;;4.93;4.43;;;;;;;;;;4984347;28;20437;-53
2022/06/07 14:26:26;;;;;;;6.30;4.60;;;;;;;;;;4984211;28;20408;-55
2022/06/07 14:28:52;;;;;;;5.35;4.40;;;;;;;;;;4987733;28;20456;-55
2022/06/07 14:31:19;;;;;;;6.35;4.60;;;;;;;;;;4986521;28;20429;-56
2022/06/07 14:33:45;;;;;;;5.45;4.22;;;;;;;;;;4989596;28;20448;-56
2022/06/07 14:36:12;;;;;;;4.65;4.15;;;;;;;;;;4993013;28;20423;-57
2022/06/07 14:38:38;;;;;;;4.80;4.00;;;;;;;;;;4987701;28;20442;-56
2022/06/07 14:41:04;;;;;;;4.47;3.80;;;;;;;;;;4984783;28;20503;-57
2022/06/07 14:43:31;;;;;;;5.18;3.65;;;;;;;;;;4987289;28;20522;-56
2022/06/07 14:46:02;;;;;;;7.72;3.80;;;;;;;;;;4981296;28;20468;-56
2022/06/07 14:48:34;;;;;;;4.38;3.97;;;;;;;;;;4987318;28;20499;-57
2022/06/07 14:51:01;;;;;;;6.90;4.20;;;;;;;;;;4971399;28;20417;-56
2022/06/07 14:53:27;;;;;;;6.45;3.58;;;;;;;;;;4973008;28;20418;-56
2022/06/07 14:55:53;;;;;;;6.03;3.50;;;;;;;;;;4980581;28;20798;-56
2022/06/07 14:58:19;;;;;;;4.80;4.38;;;;;;;;;;4975732;28;20429;-55
2022/06/07 15:00:46;;;;;;;4.55;4.20;;;;;;;;;;4981492;28;20415;-55
2022/06/07 15:03:12;;;;;;;4.60;4.20;;;;;;;;;;4988391;28;20416;-54
2022/06/07 15:05:38;;;;;;;5.27;4.77;;;;;;;;;;4991580;28;20427;-56
2022/06/07 15:08:06;;;;;;;5.20;4.70;;;;;;;;;;4975350;28;20415;-54
2022/06/07 15:10:35;;;;;;;5.07;4.50;;;;;;;;;;4982651;28;20733;-56
2022/06/07 15:13:01;;;;;;;4.53;4.13;;;;;;;;;;4991160;28;20417;-55
2022/06/07 15:15:27;;;;;;;4.43;4.07;;;;;;;;;;4985430;28;20895;-55
2022/06/07 15:17:57;;;;;;;5.93;3.70;;;;;;;;;;4986380;28;20416;-55